sensor_id;sensor_type;location;lat;lon;timestamp;temperature;humidity
21616;DHT22;10970;48.714;9.584;2023-02-16T00:01:29;0.10;99.90
21616;DHT22;10970;48.714;9.584;2023-02-16T00:03:56;0.10;99.90
21616;DHT22;10970;48.714;9.584;2023-02-16T00:06:23;0.10;99.90
21616;DHT22;10970;48.714;9.584;2023-02-16T00:08:51;0.10;99.90
21616;DHT22;10970;48.714;9.584;2023-02-16T00:14:08;0.00;99.90
21616;DHT22;10970;48.714;9.584;2023-02-16T00:16:34;0.00;99.90
21616;DHT22;10970;48.714;9.584;2023-02-16T00:19:00;0.00;99.90
21616;DHT22;10970;48.714;9.584;2023-02-16T00:21:26;-0.10;99.90
21616;DHT22;10970;48.714;9.584;2023-02-16T00:23:51;-0.10;99.90
21616;DHT22;10970;48.714;9.584;2023-02-16T00:26:23;-0.10;99.90
21616;DHT22;10970;48.714;9.584;2023-02-16T00:28:53;-0.10;99.90
21616;DHT22;10970;48.714;9.584;2023-02-16T00:31:24;-0.10;99.90
21616;DHT22;10970;48.714;9.584;2023-02-16T00:33:56;-0.10;99.90
21616;DHT22;10970;48.714;9.584;2023-02-16T00:36:22;-0.10;99.90
21616;DHT22;10970;48.714;9.584;2023-02-16T00:38:48;0.10;99.90
21616;DHT22;10970;48.714;9.584;2023-02-16T00:41:16;0.20;99.90
21616;DHT22;10970;48.714;9.584;2023-02-16T00:44:02;0.20;99.90
21616;DHT22;10970;48.714;9.584;2023-02-16T00:46:27;0.10;99.90
21616;DHT22;10970;48.714;9.584;2023-02-16T00:48:53;0.00;99.90
21616;DHT22;10970;48.714;9.584;2023-02-16T00:51:19;-0.10;99.90
21616;DHT22;10970;48.714;9.584;2023-02-16T00:53:44;-0.10;99.90
21616;DHT22;10970;48.714;9.584;2023-02-16T00:56:14;-0.20;99.90
21616;DHT22;10970;48.714;9.584;2023-02-16T00:58:41;-0.20;99.90
21616;DHT22;10970;48.714;9.584;2023-02-16T01:01:13;-0.30;99.90
21616;DHT22;10970;48.714;9.584;2023-02-16T01:03:39;-0.30;99.90
21616;DHT22;10970;48.714;9.584;2023-02-16T01:06:05;-0.30;99.90
21616;DHT22;10970;48.714;9.584;2023-02-16T01:08:51;-0.20;99.90
21616;DHT22;10970;48.714;9.584;2023-02-16T01:11:37;-0.40;99.90
21616;DHT22;10970;48.714;9.584;2023-02-16T01:14:02;-0.40;99.90
21616;DHT22;10970;48.714;9.584;2023-02-16T01:16:46;-0.40;99.90
21616;DHT22;10970;48.714;9.584;2023-02-16T01:19:12;-0.40;99.90
21616;DHT22;10970;48.714;9.584;2023-02-16T01:21:38;-0.40;99.90
21616;DHT22;10970;48.714;9.584;2023-02-16T01:24:03;-0.50;99.90
21616;DHT22;10970;48.714;9.584;2023-02-16T01:26:30;-0.50;99.90
21616;DHT22;10970;48.714;9.584;2023-02-16T01:28:56;-0.50;99.90
21616;DHT22;10970;48.714;9.584;2023-02-16T01:31:22;-0.50;99.90
21616;DHT22;10970;48.714;9.584;2023-02-16T01:33:47;-0.50;99.90
21616;DHT22;10970;48.714;9.584;2023-02-16T01:38:48;-0.60;99.90
21616;DHT22;10970;48.714;9.584;2023-02-16T01:44:04;-0.60;99.90
21616;DHT22;10970;48.714;9.584;2023-02-16T01:46:55;-0.60;99.90
21616;DHT22;10970;48.714;9.584;2023-02-16T01:49:23;-0.70;99.90
21616;DHT22;10970;48.714;9.584;2023-02-16T02:02:19;-0.70;99.90
21616;DHT22;10970;48.714;9.584;2023-02-16T02:04:50;-0.70;99.90
21616;DHT22;10970;48.714;9.584;2023-02-16T02:08:02;-0.80;99.90
21616;DHT22;10970;48.714;9.584;2023-02-16T02:10:55;-0.80;99.90
21616;DHT22;10970;48.714;9.584;2023-02-16T02:13:30;-0.90;99.90
21616;DHT22;10970;48.714;9.584;2023-02-16T02:15:58;-0.90;99.90
21616;DHT22;10970;48.714;9.584;2023-02-16T02:18:24;-0.80;99.90
21616;DHT22;10970;48.714;9.584;2023-02-16T02:27:01;-0.70;99.90
21616;DHT22;10970;48.714;9.584;2023-02-16T02:32:42;-0.80;99.90
21616;DHT22;10970;48.714;9.584;2023-02-16T02:35:25;-0.80;99.90
21616;DHT22;10970;48.714;9.584;2023-02-16T02:43:47;-0.70;99.90
21616;DHT22;10970;48.714;9.584;2023-02-16T02:46:22;-0.70;99.90
21616;DHT22;10970;48.714;9.584;2023-02-16T02:48:49;-0.70;99.90
21616;DHT22;10970;48.714;9.584;2023-02-16T02:51:15;-0.70;99.90
21616;DHT22;10970;48.714;9.584;2023-02-16T02:54:00;-0.70;99.90
21616;DHT22;10970;48.714;9.584;2023-02-16T02:56:53;-0.70;99.90
21616;DHT22;10970;48.714;9.584;2023-02-16T02:59:41;-0.80;99.90
21616;DHT22;10970;48.714;9.584;2023-02-16T03:02:27;-0.80;99.90
21616;DHT22;10970;48.714;9.584;2023-02-16T03:04:56;-0.80;99.90
21616;DHT22;10970;48.714;9.584;2023-02-16T03:07:24;-0.80;99.90
21616;DHT22;10970;48.714;9.584;2023-02-16T03:10:12;-0.80;99.90
21616;DHT22;10970;48.714;9.584;2023-02-16T03:13:00;-0.80;99.90
21616;DHT22;10970;48.714;9.584;2023-02-16T03:15:27;-0.80;99.90
21616;DHT22;10970;48.714;9.584;2023-02-16T03:17:55;-0.80;99.90
21616;DHT22;10970;48.714;9.584;2023-02-16T03:20:41;-0.90;99.90
21616;DHT22;10970;48.714;9.584;2023-02-16T03:23:27;-1.00;99.90
21616;DHT22;10970;48.714;9.584;2023-02-16T03:26:12;-1.00;99.90
21616;DHT22;10970;48.714;9.584;2023-02-16T03:28:58;-1.10;99.90
21616;DHT22;10970;48.714;9.584;2023-02-16T03:31:41;-1.10;99.90
21616;DHT22;10970;48.714;9.584;2023-02-16T03:34:08;-1.10;99.90
21616;DHT22;10970;48.714;9.584;2023-02-16T03:36:36;-1.10;99.90
21616;DHT22;10970;48.714;9.584;2023-02-16T03:39:03;-1.20;99.90
21616;DHT22;10970;48.714;9.584;2023-02-16T03:41:38;-1.10;99.90
21616;DHT22;10970;48.714;9.584;2023-02-16T03:44:04;-1.10;99.90
21616;DHT22;10970;48.714;9.584;2023-02-16T03:46:30;-1.10;99.90
21616;DHT22;10970;48.714;9.584;2023-02-16T03:48:55;-1.10;99.90
21616;DHT22;10970;48.714;9.584;2023-02-16T03:51:21;-1.20;99.90
21616;DHT22;10970;48.714;9.584;2023-02-16T03:53:47;-1.20;99.90
21616;DHT22;10970;48.714;9.584;2023-02-16T03:56:12;-1.10;99.90
21616;DHT22;10970;48.714;9.584;2023-02-16T03:58:38;-1.20;99.90
21616;DHT22;10970;48.714;9.584;2023-02-16T04:01:04;-1.20;99.90
21616;DHT22;10970;48.714;9.584;2023-02-16T04:03:29;-1.20;99.90
21616;DHT22;10970;48.714;9.584;2023-02-16T04:05:55;-1.30;99.90
21616;DHT22;10970;48.714;9.584;2023-02-16T04:08:21;-1.30;99.90
21616;DHT22;10970;48.714;9.584;2023-02-16T04:10:47;-1.30;99.90
21616;DHT22;10970;48.714;9.584;2023-02-16T04:13:12;-1.30;99.90
21616;DHT22;10970;48.714;9.584;2023-02-16T04:15:39;-1.30;99.90
21616;DHT22;10970;48.714;9.584;2023-02-16T04:18:05;-1.20;99.90
21616;DHT22;10970;48.714;9.584;2023-02-16T04:20:33;-1.30;99.90
21616;DHT22;10970;48.714;9.584;2023-02-16T04:22:59;-1.30;99.90
21616;DHT22;10970;48.714;9.584;2023-02-16T04:25:25;-1.30;99.90
21616;DHT22;10970;48.714;9.584;2023-02-16T04:27:51;-1.30;99.90
21616;DHT22;10970;48.714;9.584;2023-02-16T04:30:23;-1.40;99.90
21616;DHT22;10970;48.714;9.584;2023-02-16T04:32:49;-1.40;99.90
21616;DHT22;10970;48.714;9.584;2023-02-16T04:35:16;-1.40;99.90
21616;DHT22;10970;48.714;9.584;2023-02-16T04:37:41;-1.40;99.90
21616;DHT22;10970;48.714;9.584;2023-02-16T04:40:08;-1.40;99.90
21616;DHT22;10970;48.714;9.584;2023-02-16T04:42:38;-1.40;99.90
21616;DHT22;10970;48.714;9.584;2023-02-16T04:45:04;-1.40;99.90
21616;DHT22;10970;48.714;9.584;2023-02-16T04:47:30;-1.40;99.90
21616;DHT22;10970;48.714;9.584;2023-02-16T04:49:56;-1.50;99.90
21616;DHT22;10970;48.714;9.584;2023-02-16T04:52:21;-1.50;99.90
21616;DHT22;10970;48.714;9.584;2023-02-16T04:54:47;-1.30;99.90
21616;DHT22;10970;48.714;9.584;2023-02-16T04:57:12;-1.30;99.90
21616;DHT22;10970;48.714;9.584;2023-02-16T04:59:38;-1.40;99.90
21616;DHT22;10970;48.714;9.584;2023-02-16T05:02:04;-1.30;99.90
21616;DHT22;10970;48.714;9.584;2023-02-16T05:04:29;-1.40;99.90
21616;DHT22;10970;48.714;9.584;2023-02-16T05:06:55;-1.40;99.90
21616;DHT22;10970;48.714;9.584;2023-02-16T05:09:21;-1.50;99.90
21616;DHT22;10970;48.714;9.584;2023-02-16T05:11:46;-1.50;99.90
21616;DHT22;10970;48.714;9.584;2023-02-16T05:14:32;-1.50;99.90
21616;DHT22;10970;48.714;9.584;2023-02-16T05:17:16;-1.50;99.90
21616;DHT22;10970;48.714;9.584;2023-02-16T05:19:43;-1.50;99.90
21616;DHT22;10970;48.714;9.584;2023-02-16T05:22:10;-1.50;99.90
21616;DHT22;10970;48.714;9.584;2023-02-16T05:24:36;-1.50;99.90
21616;DHT22;10970;48.714;9.584;2023-02-16T05:27:03;-1.50;99.90
21616;DHT22;10970;48.714;9.584;2023-02-16T05:29:29;-1.60;99.90
21616;DHT22;10970;48.714;9.584;2023-02-16T05:31:55;-1.50;99.90
21616;DHT22;10970;48.714;9.584;2023-02-16T05:34:21;-1.60;99.90
21616;DHT22;10970;48.714;9.584;2023-02-16T05:36:47;-1.60;99.90
21616;DHT22;10970;48.714;9.584;2023-02-16T05:39:12;-1.60;99.90
21616;DHT22;10970;48.714;9.584;2023-02-16T05:41:38;-1.60;99.90
21616;DHT22;10970;48.714;9.584;2023-02-16T05:44:05;-1.50;99.90
21616;DHT22;10970;48.714;9.584;2023-02-16T05:46:32;-1.50;99.90
21616;DHT22;10970;48.714;9.584;2023-02-16T05:49:00;-1.50;99.90
21616;DHT22;10970;48.714;9.584;2023-02-16T05:51:25;-1.50;99.90
21616;DHT22;10970;48.714;9.584;2023-02-16T05:53:51;-1.50;99.90
21616;DHT22;10970;48.714;9.584;2023-02-16T05:56:17;-1.50;99.90
21616;DHT22;10970;48.714;9.584;2023-02-16T05:58:43;-1.60;99.90
21616;DHT22;10970;48.714;9.584;2023-02-16T06:01:10;-1.60;99.90
21616;DHT22;10970;48.714;9.584;2023-02-16T06:03:35;-1.50;99.90
21616;DHT22;10970;48.714;9.584;2023-02-16T06:06:02;-1.50;99.90
21616;DHT22;10970;48.714;9.584;2023-02-16T06:08:29;-1.60;99.90
21616;DHT22;10970;48.714;9.584;2023-02-16T06:10:55;-1.70;99.90
21616;DHT22;10970;48.714;9.584;2023-02-16T06:13:22;-1.70;99.90
21616;DHT22;10970;48.714;9.584;2023-02-16T06:15:51;-1.70;99.90
21616;DHT22;10970;48.714;9.584;2023-02-16T06:18:17;-1.60;99.90
21616;DHT22;10970;48.714;9.584;2023-02-16T06:20:43;-1.70;99.90
21616;DHT22;10970;48.714;9.584;2023-02-16T06:23:10;-1.70;99.90
21616;DHT22;10970;48.714;9.584;2023-02-16T06:25:36;-1.70;99.90
21616;DHT22;10970;48.714;9.584;2023-02-16T06:28:02;-1.80;99.90
21616;DHT22;10970;48.714;9.584;2023-02-16T06:30:28;-1.80;99.90
21616;DHT22;10970;48.714;9.584;2023-02-16T06:32:53;-1.80;99.90
21616;DHT22;10970;48.714;9.584;2023-02-16T06:35:19;-1.90;99.90
21616;DHT22;10970;48.714;9.584;2023-02-16T06:37:45;-1.90;99.90
21616;DHT22;10970;48.714;9.584;2023-02-16T06:40:11;-1.80;99.90
21616;DHT22;10970;48.714;9.584;2023-02-16T06:42:41;-1.80;99.90
21616;DHT22;10970;48.714;9.584;2023-02-16T06:45:07;-1.80;99.90
21616;DHT22;10970;48.714;9.584;2023-02-16T06:47:34;-1.90;99.90
21616;DHT22;10970;48.714;9.584;2023-02-16T06:50:00;-1.90;99.90
21616;DHT22;10970;48.714;9.584;2023-02-16T06:52:25;-1.90;99.90
21616;DHT22;10970;48.714;9.584;2023-02-16T06:54:51;-1.80;99.90
21616;DHT22;10970;48.714;9.584;2023-02-16T06:57:17;-1.80;99.90
21616;DHT22;10970;48.714;9.584;2023-02-16T06:59:42;-1.80;99.90
21616;DHT22;10970;48.714;9.584;2023-02-16T07:02:09;-1.70;99.90
21616;DHT22;10970;48.714;9.584;2023-02-16T07:04:34;-1.70;99.90
21616;DHT22;10970;48.714;9.584;2023-02-16T07:07:00;-1.60;99.90
21616;DHT22;10970;48.714;9.584;2023-02-16T07:09:26;-1.60;99.90
21616;DHT22;10970;48.714;9.584;2023-02-16T07:11:51;-1.50;99.90
21616;DHT22;10970;48.714;9.584;2023-02-16T07:14:17;-1.50;99.90
21616;DHT22;10970;48.714;9.584;2023-02-16T07:16:43;-1.50;99.90
21616;DHT22;10970;48.714;9.584;2023-02-16T07:19:09;-1.50;99.90
21616;DHT22;10970;48.714;9.584;2023-02-16T07:21:34;-1.50;99.90
21616;DHT22;10970;48.714;9.584;2023-02-16T07:24:00;-1.40;99.90
21616;DHT22;10970;48.714;9.584;2023-02-16T07:26:27;-1.40;99.90
21616;DHT22;10970;48.714;9.584;2023-02-16T07:28:52;-1.30;99.90
21616;DHT22;10970;48.714;9.584;2023-02-16T07:31:18;-1.30;99.90
21616;DHT22;10970;48.714;9.584;2023-02-16T07:33:44;-1.20;99.90
21616;DHT22;10970;48.714;9.584;2023-02-16T07:36:11;-0.80;99.90
21616;DHT22;10970;48.714;9.584;2023-02-16T07:38:38;-1.10;99.90
21616;DHT22;10970;48.714;9.584;2023-02-16T07:41:06;-1.00;99.90
21616;DHT22;10970;48.714;9.584;2023-02-16T07:43:32;-0.90;99.90
21616;DHT22;10970;48.714;9.584;2023-02-16T07:45:59;-0.90;99.90
21616;DHT22;10970;48.714;9.584;2023-02-16T07:48:24;-0.80;99.90
21616;DHT22;10970;48.714;9.584;2023-02-16T07:50:50;-0.70;99.90
21616;DHT22;10970;48.714;9.584;2023-02-16T07:53:16;-0.70;99.90
21616;DHT22;10970;48.714;9.584;2023-02-16T07:55:43;-0.70;99.90
21616;DHT22;10970;48.714;9.584;2023-02-16T07:58:09;-0.60;99.90
21616;DHT22;10970;48.714;9.584;2023-02-16T08:00:35;-0.40;99.90
21616;DHT22;10970;48.714;9.584;2023-02-16T08:03:01;-0.40;99.90
21616;DHT22;10970;48.714;9.584;2023-02-16T08:05:27;-0.30;99.90
21616;DHT22;10970;48.714;9.584;2023-02-16T08:07:53;-0.30;99.90
21616;DHT22;10970;48.714;9.584;2023-02-16T08:10:19;-0.20;99.90
21616;DHT22;10970;48.714;9.584;2023-02-16T08:12:45;0.00;99.90
21616;DHT22;10970;48.714;9.584;2023-02-16T08:15:11;0.00;99.90
21616;DHT22;10970;48.714;9.584;2023-02-16T08:17:37;0.10;99.90
21616;DHT22;10970;48.714;9.584;2023-02-16T08:20:04;0.20;99.90
21616;DHT22;10970;48.714;9.584;2023-02-16T08:22:30;0.30;99.90
21616;DHT22;10970;48.714;9.584;2023-02-16T08:24:57;0.30;99.90
21616;DHT22;10970;48.714;9.584;2023-02-16T08:27:24;0.50;99.90
21616;DHT22;10970;48.714;9.584;2023-02-16T08:29:52;0.50;99.90
21616;DHT22;10970;48.714;9.584;2023-02-16T08:32:18;0.60;99.90
21616;DHT22;10970;48.714;9.584;2023-02-16T08:34:44;0.70;99.90
21616;DHT22;10970;48.714;9.584;2023-02-16T08:37:11;0.80;99.90
21616;DHT22;10970;48.714;9.584;2023-02-16T08:39:37;0.90;99.90
21616;DHT22;10970;48.714;9.584;2023-02-16T08:42:04;1.00;99.90
21616;DHT22;10970;48.714;9.584;2023-02-16T08:44:30;1.10;99.90
21616;DHT22;10970;48.714;9.584;2023-02-16T08:46:58;1.20;99.90
21616;DHT22;10970;48.714;9.584;2023-02-16T08:49:24;1.30;99.90
21616;DHT22;10970;48.714;9.584;2023-02-16T08:51:52;1.50;99.90
21616;DHT22;10970;48.714;9.584;2023-02-16T08:54:25;1.60;99.90
21616;DHT22;10970;48.714;9.584;2023-02-16T08:56:53;1.70;99.90
21616;DHT22;10970;48.714;9.584;2023-02-16T08:59:20;1.80;99.90
21616;DHT22;10970;48.714;9.584;2023-02-16T09:01:47;1.90;99.90
21616;DHT22;10970;48.714;9.584;2023-02-16T09:04:13;1.90;99.90
21616;DHT22;10970;48.714;9.584;2023-02-16T09:06:41;2.10;99.90
21616;DHT22;10970;48.714;9.584;2023-02-16T09:09:07;2.20;99.90
21616;DHT22;10970;48.714;9.584;2023-02-16T09:11:33;2.70;99.90
21616;DHT22;10970;48.714;9.584;2023-02-16T09:13:59;2.50;99.90
21616;DHT22;10970;48.714;9.584;2023-02-16T09:16:27;2.60;99.90
21616;DHT22;10970;48.714;9.584;2023-02-16T09:18:54;2.70;99.90
21616;DHT22;10970;48.714;9.584;2023-02-16T09:21:24;2.80;99.90
21616;DHT22;10970;48.714;9.584;2023-02-16T09:23:52;2.90;99.90
21616;DHT22;10970;48.714;9.584;2023-02-16T09:26:20;3.00;99.90
21616;DHT22;10970;48.714;9.584;2023-02-16T09:28:46;3.20;99.90
21616;DHT22;10970;48.714;9.584;2023-02-16T09:31:23;3.30;99.90
21616;DHT22;10970;48.714;9.584;2023-02-16T09:34:05;3.40;99.90
21616;DHT22;10970;48.714;9.584;2023-02-16T09:36:32;3.50;99.90
21616;DHT22;10970;48.714;9.584;2023-02-16T09:38:58;3.60;99.90
21616;DHT22;10970;48.714;9.584;2023-02-16T09:46:47;3.80;99.90
21616;DHT22;10970;48.714;9.584;2023-02-16T09:49:25;4.00;99.90
21616;DHT22;10970;48.714;9.584;2023-02-16T09:54:55;4.10;99.90
21616;DHT22;10970;48.714;9.584;2023-02-16T10:01:06;4.50;99.90
21616;DHT22;10970;48.714;9.584;2023-02-16T10:08:40;4.90;99.90
21616;DHT22;10970;48.714;9.584;2023-02-16T10:14:11;5.10;99.90
21616;DHT22;10970;48.714;9.584;2023-02-16T10:16:45;5.20;99.90
21616;DHT22;10970;48.714;9.584;2023-02-16T10:19:26;5.30;99.90
21616;DHT22;10970;48.714;9.584;2023-02-16T10:21:57;5.40;99.90
21616;DHT22;10970;48.714;9.584;2023-02-16T10:24:25;5.50;99.90
21616;DHT22;10970;48.714;9.584;2023-02-16T10:27:06;5.60;99.90
21616;DHT22;10970;48.714;9.584;2023-02-16T10:29:34;5.70;99.90
21616;DHT22;10970;48.714;9.584;2023-02-16T10:45:36;6.40;99.90
21616;DHT22;10970;48.714;9.584;2023-02-16T10:48:04;6.60;99.90
21616;DHT22;10970;48.714;9.584;2023-02-16T10:51:02;6.70;99.90
21616;DHT22;10970;48.714;9.584;2023-02-16T10:55:56;7.00;99.90
21616;DHT22;10970;48.714;9.584;2023-02-16T10:58:25;7.10;99.90
21616;DHT22;10970;48.714;9.584;2023-02-16T11:01:25;7.30;99.90
21616;DHT22;10970;48.714;9.584;2023-02-16T11:03:50;7.40;99.90
21616;DHT22;10970;48.714;9.584;2023-02-16T11:06:22;7.50;99.90
21616;DHT22;10970;48.714;9.584;2023-02-16T11:08:55;7.60;99.90
21616;DHT22;10970;48.714;9.584;2023-02-16T11:11:40;7.80;99.90
21616;DHT22;10970;48.714;9.584;2023-02-16T11:14:28;8.00;99.90
21616;DHT22;10970;48.714;9.584;2023-02-16T11:17:10;8.10;99.90
21616;DHT22;10970;48.714;9.584;2023-02-16T11:19:39;8.20;99.90
21616;DHT22;10970;48.714;9.584;2023-02-16T11:22:33;8.40;99.90
21616;DHT22;10970;48.714;9.584;2023-02-16T11:25:19;8.60;99.90
21616;DHT22;10970;48.714;9.584;2023-02-16T11:28:00;8.60;99.90
21616;DHT22;10970;48.714;9.584;2023-02-16T11:30:39;8.80;99.90
21616;DHT22;10970;48.714;9.584;2023-02-16T11:33:24;8.90;99.90
21616;DHT22;10970;48.714;9.584;2023-02-16T11:35:51;9.00;99.90
21616;DHT22;10970;48.714;9.584;2023-02-16T11:38:56;9.00;99.90
21616;DHT22;10970;48.714;9.584;2023-02-16T11:41:24;9.20;99.90
21616;DHT22;10970;48.714;9.584;2023-02-16T11:43:50;9.30;99.90
21616;DHT22;10970;48.714;9.584;2023-02-16T11:46:19;9.50;99.90
21616;DHT22;10970;48.714;9.584;2023-02-16T11:48:46;9.80;99.90
21616;DHT22;10970;48.714;9.584;2023-02-16T11:51:13;10.20;99.90
21616;DHT22;10970;48.714;9.584;2023-02-16T11:53:41;10.50;99.90
21616;DHT22;10970;48.714;9.584;2023-02-16T11:56:26;10.70;99.90
21616;DHT22;10970;48.714;9.584;2023-02-16T12:04:39;10.90;99.90
21616;DHT22;10970;48.714;9.584;2023-02-16T12:21:22;11.20;99.90
21616;DHT22;10970;48.714;9.584;2023-02-16T12:24:15;11.30;99.90
21616;DHT22;10970;48.714;9.584;2023-02-16T12:29:26;11.50;99.90
21616;DHT22;10970;48.714;9.584;2023-02-16T12:35:05;11.80;99.90
21616;DHT22;10970;48.714;9.584;2023-02-16T12:37:44;12.00;99.90
21616;DHT22;10970;48.714;9.584;2023-02-16T12:45:45;12.30;99.90
21616;DHT22;10970;48.714;9.584;2023-02-16T12:48:34;12.50;99.90
21616;DHT22;10970;48.714;9.584;2023-02-16T12:51:13;12.60;99.90
21616;DHT22;10970;48.714;9.584;2023-02-16T12:54:00;12.70;99.90
21616;DHT22;10970;48.714;9.584;2023-02-16T12:56:37;12.80;99.90
21616;DHT22;10970;48.714;9.584;2023-02-16T13:02:12;12.80;99.90
21616;DHT22;10970;48.714;9.584;2023-02-16T13:04:43;12.90;99.90
21616;DHT22;10970;48.714;9.584;2023-02-16T13:07:44;12.80;99.90
21616;DHT22;10970;48.714;9.584;2023-02-16T13:10:23;12.70;99.90
21616;DHT22;10970;48.714;9.584;2023-02-16T13:13:13;12.60;99.90
21616;DHT22;10970;48.714;9.584;2023-02-16T13:15:45;12.50;99.90
21616;DHT22;10970;48.714;9.584;2023-02-16T13:18:22;12.50;99.90
21616;DHT22;10970;48.714;9.584;2023-02-16T13:21:01;12.40;99.90
21616;DHT22;10970;48.714;9.584;2023-02-16T13:45:40;12.70;99.90
21616;DHT22;10970;48.714;9.584;2023-02-16T13:48:20;12.70;99.90
21616;DHT22;10970;48.714;9.584;2023-02-16T13:50:55;12.70;99.90
21616;DHT22;10970;48.714;9.584;2023-02-16T13:53:22;12.70;99.90
21616;DHT22;10970;48.714;9.584;2023-02-16T13:55:49;12.70;99.90
21616;DHT22;10970;48.714;9.584;2023-02-16T13:58:34;12.70;99.90
21616;DHT22;10970;48.714;9.584;2023-02-16T14:03:56;12.70;99.90
21616;DHT22;10970;48.714;9.584;2023-02-16T14:22:18;12.60;99.90
21616;DHT22;10970;48.714;9.584;2023-02-16T14:30:53;12.80;99.90
21616;DHT22;10970;48.714;9.584;2023-02-16T14:36:25;13.00;99.90
21616;DHT22;10970;48.714;9.584;2023-02-16T14:38:54;13.20;99.90
21616;DHT22;10970;48.714;9.584;2023-02-16T15:03:03;13.30;99.90
21616;DHT22;10970;48.714;9.584;2023-02-16T15:05:38;13.30;99.90
21616;DHT22;10970;48.714;9.584;2023-02-16T15:08:21;13.20;99.90
21616;DHT22;10970;48.714;9.584;2023-02-16T15:10:49;13.10;99.90
21616;DHT22;10970;48.714;9.584;2023-02-16T15:13:29;13.10;99.90
21616;DHT22;10970;48.714;9.584;2023-02-16T15:15:57;13.20;99.90
21616;DHT22;10970;48.714;9.584;2023-02-16T15:18:31;13.20;99.90
21616;DHT22;10970;48.714;9.584;2023-02-16T15:20:57;13.20;99.90
21616;DHT22;10970;48.714;9.584;2023-02-16T15:23:26;13.20;99.90
21616;DHT22;10970;48.714;9.584;2023-02-16T15:28:22;13.30;99.90
21616;DHT22;10970;48.714;9.584;2023-02-16T15:30:58;13.20;99.90
21616;DHT22;10970;48.714;9.584;2023-02-16T15:33:26;13.20;99.90
21616;DHT22;10970;48.714;9.584;2023-02-16T15:36:13;13.10;99.90
21616;DHT22;10970;48.714;9.584;2023-02-16T15:38:42;13.10;99.90
21616;DHT22;10970;48.714;9.584;2023-02-16T15:41:22;13.10;99.90
21616;DHT22;10970;48.714;9.584;2023-02-16T15:43:50;13.10;99.90
21616;DHT22;10970;48.714;9.584;2023-02-16T15:48:48;13.10;99.90
21616;DHT22;10970;48.714;9.584;2023-02-16T15:54:18;13.00;99.90
21616;DHT22;10970;48.714;9.584;2023-02-16T15:56:48;12.90;99.90
21616;DHT22;10970;48.714;9.584;2023-02-16T16:01:41;12.80;99.90
21616;DHT22;10970;48.714;9.584;2023-02-16T16:04:21;12.90;99.90
21616;DHT22;10970;48.714;9.584;2023-02-16T16:06:49;12.70;99.90
21616;DHT22;10970;48.714;9.584;2023-02-16T16:09:27;12.60;99.90
21616;DHT22;10970;48.714;9.584;2023-02-16T16:11:59;12.50;99.90
21616;DHT22;10970;48.714;9.584;2023-02-16T16:14:26;12.30;99.90
21616;DHT22;10970;48.714;9.584;2023-02-16T16:16:53;12.00;99.90
21616;DHT22;10970;48.714;9.584;2023-02-16T16:19:31;11.70;99.90
21616;DHT22;10970;48.714;9.584;2023-02-16T16:21:58;11.50;99.90
21616;DHT22;10970;48.714;9.584;2023-02-16T16:24:34;11.30;99.90
21616;DHT22;10970;48.714;9.584;2023-02-16T16:27:08;11.10;99.90
21616;DHT22;10970;48.714;9.584;2023-02-16T16:29:44;11.00;99.90
21616;DHT22;10970;48.714;9.584;2023-02-16T16:32:23;10.80;99.90
21616;DHT22;10970;48.714;9.584;2023-02-16T16:34:50;10.70;99.90
21616;DHT22;10970;48.714;9.584;2023-02-16T16:37:34;10.60;99.90
21616;DHT22;10970;48.714;9.584;2023-02-16T16:40:04;10.50;99.90
21616;DHT22;10970;48.714;9.584;2023-02-16T16:42:31;10.50;99.90
21616;DHT22;10970;48.714;9.584;2023-02-16T16:47:39;10.20;99.90
21616;DHT22;10970;48.714;9.584;2023-02-16T16:52:37;10.20;99.90
21616;DHT22;10970;48.714;9.584;2023-02-16T16:55:24;10.10;99.90
21616;DHT22;10970;48.714;9.584;2023-02-16T16:58:04;10.10;99.90
21616;DHT22;10970;48.714;9.584;2023-02-16T17:00:36;10.10;99.90
21616;DHT22;10970;48.714;9.584;2023-02-16T17:03:04;10.10;99.90
21616;DHT22;10970;48.714;9.584;2023-02-16T17:05:30;10.10;99.90
21616;DHT22;10970;48.714;9.584;2023-02-16T17:07:56;10.00;99.90
21616;DHT22;10970;48.714;9.584;2023-02-16T17:10:22;10.00;99.90
21616;DHT22;10970;48.714;9.584;2023-02-16T17:12:51;10.00;99.90
21616;DHT22;10970;48.714;9.584;2023-02-16T17:17:56;9.90;99.90
21616;DHT22;10970;48.714;9.584;2023-02-16T17:20:22;9.90;99.90
21616;DHT22;10970;48.714;9.584;2023-02-16T17:22:48;10.00;99.90
21616;DHT22;10970;48.714;9.584;2023-02-16T17:25:14;10.10;99.90
21616;DHT22;10970;48.714;9.584;2023-02-16T17:27:40;10.10;99.90
21616;DHT22;10970;48.714;9.584;2023-02-16T17:30:06;10.20;99.90
21616;DHT22;10970;48.714;9.584;2023-02-16T17:32:31;10.10;99.90
21616;DHT22;10970;48.714;9.584;2023-02-16T17:34:57;10.00;99.90
21616;DHT22;10970;48.714;9.584;2023-02-16T17:37:23;9.90;99.90
21616;DHT22;10970;48.714;9.584;2023-02-16T17:39:49;9.90;99.90
21616;DHT22;10970;48.714;9.584;2023-02-16T17:42:15;9.90;99.90
21616;DHT22;10970;48.714;9.584;2023-02-16T17:44:40;9.80;99.90
21616;DHT22;10970;48.714;9.584;2023-02-16T17:47:12;9.70;99.90
21616;DHT22;10970;48.714;9.584;2023-02-16T17:49:39;9.70;99.90
21616;DHT22;10970;48.714;9.584;2023-02-16T17:52:09;9.70;99.90
21616;DHT22;10970;48.714;9.584;2023-02-16T17:54:35;9.70;99.90
21616;DHT22;10970;48.714;9.584;2023-02-16T17:57:01;9.70;99.90
21616;DHT22;10970;48.714;9.584;2023-02-16T17:59:27;9.70;99.90
21616;DHT22;10970;48.714;9.584;2023-02-16T18:01:53;9.70;99.90
21616;DHT22;10970;48.714;9.584;2023-02-16T18:04:18;9.60;99.90
21616;DHT22;10970;48.714;9.584;2023-02-16T18:06:44;9.70;99.90
21616;DHT22;10970;48.714;9.584;2023-02-16T18:09:15;9.80;99.90
21616;DHT22;10970;48.714;9.584;2023-02-16T18:11:45;9.80;99.90
21616;DHT22;10970;48.714;9.584;2023-02-16T18:14:11;9.80;99.90
21616;DHT22;10970;48.714;9.584;2023-02-16T18:16:38;9.70;99.90
21616;DHT22;10970;48.714;9.584;2023-02-16T18:19:04;9.70;99.90
21616;DHT22;10970;48.714;9.584;2023-02-16T18:21:33;9.60;99.90
21616;DHT22;10970;48.714;9.584;2023-02-16T18:23:59;9.50;99.90
21616;DHT22;10970;48.714;9.584;2023-02-16T18:26:25;9.50;99.90
21616;DHT22;10970;48.714;9.584;2023-02-16T18:28:52;9.50;99.90
21616;DHT22;10970;48.714;9.584;2023-02-16T18:31:18;9.50;99.90
21616;DHT22;10970;48.714;9.584;2023-02-16T18:33:45;9.40;99.90
21616;DHT22;10970;48.714;9.584;2023-02-16T18:36:11;9.40;99.90
21616;DHT22;10970;48.714;9.584;2023-02-16T18:38:37;9.30;99.90
21616;DHT22;10970;48.714;9.584;2023-02-16T18:41:04;9.30;99.90
21616;DHT22;10970;48.714;9.584;2023-02-16T18:43:29;9.30;99.90
21616;DHT22;10970;48.714;9.584;2023-02-16T18:45:56;9.20;99.90
21616;DHT22;10970;48.714;9.584;2023-02-16T18:48:22;9.20;99.90
21616;DHT22;10970;48.714;9.584;2023-02-16T18:50:48;9.10;99.90
21616;DHT22;10970;48.714;9.584;2023-02-16T18:53:14;9.10;99.90
21616;DHT22;10970;48.714;9.584;2023-02-16T18:55:39;9.00;99.90
21616;DHT22;10970;48.714;9.584;2023-02-16T18:58:05;9.00;99.90
21616;DHT22;10970;48.714;9.584;2023-02-16T19:00:31;8.90;99.90
21616;DHT22;10970;48.714;9.584;2023-02-16T19:02:57;8.90;99.90
21616;DHT22;10970;48.714;9.584;2023-02-16T19:05:23;8.80;99.90
21616;DHT22;10970;48.714;9.584;2023-02-16T19:07:49;8.80;99.90